Catàleg de serveis del Meteocat

Dades de l'estació automàtica la Vall d'en Bas

?
?
Resum diari 21:30 TU
Dades diàries de l'estació meteorològica
Temperatura mitjana 4.8 °C
Temperatura màxima 11.5 °C 12:59 TU
Temperatura mínima -1.5 °C 7:47 TU
Humitat relativa mitjana 87%
Precipitació acumulada 0.5 mm
Ratxa màxima del vent (2 m) 17.6 km/h - 167º 20:52 TU
Irradiació solar global 4.9 MJ/m2

El tram horari està expressat en Temps Universal (TU). Cal sumar una hora en horari d'hivern i dues en horari d'estiu per passar a l'hora oficial.

la Vall d'en Bas

Metadades estació meteorol´gica
Municipi La Vall d'en Bas
Comarca Garrotxa
Altitud 461 m
Data alta 16.03.2000
Estat actual Operativa
Dades de període
Període
TU
TM
°C
TX
°C
TN
°C
HRM
%
PPT
mm
VVM (2 m)
km/h
DVM (2 m)
graus
VVX (2 m)
km/h
RS
W/m2
00:00 - 00:30 0.8 1.0 0.6 100 0.0 1.1 216 4.3 0
00:30 - 01:00 1.0 1.0 0.8 100 0.0 1.1 312 5.0 0
01:00 - 01:30 0.9 0.9 0.8 100 0.0 0.7 322 2.9 0
01:30 - 02:00 0.6 0.7 0.5 100 0.0 1.1 231 3.6 0
02:00 - 02:30 0.5 0.6 0.3 100 0.0 1.8 330 4.7 0
02:30 - 03:00 0.1 0.3 -0.1 100 0.0 1.4 6 3.6 0
03:00 - 03:30 -0.2 -0.1 -0.3 100 0.0 0.7 9 2.2 0
03:30 - 04:00 -0.2 0.0 -0.4 100 0.0 1.1 339 3.2 0
04:00 - 04:30 0.1 0.5 -0.2 100 0.0 0.7 242 2.5 0
04:30 - 05:00 0.6 0.7 0.5 100 0.0 0.7 262 2.2 0
05:00 - 05:30 0.9 1.0 0.7 100 0.0 0.4 296 2.2 0
05:30 - 06:00 1.1 1.2 1.0 100 0.0 0.0 305 2.5 0
06:00 - 06:30 1.2 1.3 0.9 100 0.0 0.4 264 2.2 0
06:30 - 07:00 0.4 0.8 -0.1 100 0.0 1.1 32 2.9 0
07:00 - 07:30 -0.3 0.1 -0.5 100 0.0 0.4 7 2.2 2
07:30 - 08:00 -1.0 -0.4 -1.5 100 0.0 1.4 220 3.6 16
08:00 - 08:30 -0.9 -0.5 -1.2 100 0.0 1.1 220 3.2 36
08:30 - 09:00 0.1 1.2 -0.8 100 0.0 2.5 195 5.4 127
09:00 - 09:30 2.3 3.2 1.3 100 0.0 1.4 191 4.0 245
09:30 - 10:00 4.1 4.7 3.5 100 0.1 1.1 47 3.6 215
10:00 - 10:30 4.5 5.2 4.2 100 0.0 1.1 322 2.5 186
10:30 - 11:00 6.9 8.3 5.4 97 0.0 0.7 60 3.2 399
11:00 - 11:30 9.3 10.7 8.2 76 0.0 1.8 355 5.4 464
11:30 - 12:00 10.6 11.0 10.5 61 0.0 5.4 45 10.1 234
12:00 - 12:30 10.8 11.1 10.6 59 0.0 5.4 55 9.7 229
12:30 - 13:00 11.2 11.5 11.0 57 0.0 2.9 58 10.1 196
13:00 - 13:30 11.1 11.5 10.8 56 0.0 2.2 207 5.4 106
13:30 - 14:00 10.9 11.1 10.7 57 0.0 3.2 217 6.5 139
14:00 - 14:30 10.9 11.2 10.5 56 0.0 3.2 164 12.6 99
14:30 - 15:00 10.3 10.5 10.1 59 0.0 6.1 149 10.8 30
15:00 - 15:30 9.9 10.1 9.5 61 0.0 3.2 159 7.6 11
15:30 - 16:00 9.1 9.4 8.6 66 0.0 3.2 283 5.8 14
16:00 - 16:30 8.8 9.2 8.1 68 0.0 1.8 279 4.3 8
16:30 - 17:00 7.8 8.2 7.3 78 0.0 1.8 329 3.6 0
17:00 - 17:30 7.2 7.4 7.0 82 0.0 0.7 214 2.9 0
17:30 - 18:00 6.8 7.0 6.5 86 0.0 2.9 220 5.8 0
18:00 - 18:30 6.6 7.2 6.1 90 0.1 4.0 231 8.6 0
18:30 - 19:00 7.0 7.2 6.5 89 0.2 1.8 193 3.6 0
19:00 - 19:30 6.3 6.6 6.2 94 0.1 2.2 217 11.9 0
19:30 - 20:00 6.6 6.8 6.3 89 0.0 7.9 208 16.2 0
20:00 - 20:30 6.9 7.2 6.5 84 0.0 7.2 191 16.9 0
20:30 - 21:00 6.9 7.3 6.6 82 0.0 6.1 199 17.6 0
21:00 - 21:30 6.7 7.0 5.7 81 0.0 4.0 194 8.6 0
21:30 - 22:00 4.6 5.5 3.8 91 0.0 1.4 68 4.0 0

Les dades en taronja només han passat un control de qualitat automàtic. Resta pendent la seva validació definitiva.